Sublime, Texas
Current Conditions -  °F | °C
As of 4:55 AM on Thursday 27 Nov 2014 (Local Time) from K66R Reporting Station
Clear Clear  
Wind Chill: 43°   Ceiling: Unl
Heat Index: 43°   Visibility: 10mi
Dew Point: 38°   Wind: 0mph
Humidity: 82%   Direction: NA
Pressure: 30.4"   Gusts: NA
Location:  29.48°N, 96.8°W
Report Text: K66R 271055Z AUTO 00000KT 10SM CLR 06/04 A3040 RMK AO2 T00630035
Loading
Personal Weather Stations






























Interactive Weather Map New forecast layout! Learn more

10-Day Weather Forecast

Advertisements
Track Severe Weather on mobile